Aérodrome :
LOGIN :

S'inscrire | Disclaimer

   EN    FR    IT 

 










Légende :    VFR   VFR Marginal   IFR   IFR Intensif   IFR Très Intensif
Visi : 
Plafond : 
>= 8 km
>= 3000ft
5 à 8 km
1000 à 3000 ft
1500m à 5 km
500 à 1000 ft
800 à 1500m
200 à 500 ft
< 800m
< 200 ft
Symboles :   Orages  Brouillard  Fortes neiges  Fortes précipitations  Vent > 20 kt
SIGMETs :   Divers  Orages  Givrage  Turbulence  Onde Orograph.  Cendres Volcan.







- Altitude de l'aérodrome : 49 ft
- Code IATA : GLZ


EHGR - Gilze-Rijen Airbase

DERNIER METAR :
  • 201825Z AUTO 28011KT 250V330 9999 BKN033 BKN040 18/11 Q1014 BLU

METARs EXPIRÉS :
  • 201755Z AUTO 29009KT 250V330 9999 FEW030 SCT035 BKN044 19/12 Q1014 BLU
  • 201725Z AUTO 27010KT 230V320 9999 BKN063 BKN071 19/11 Q1014 BLU
  • 201655Z AUTO 28011KT 240V310 9999 FEW025 SCT053 OVC059 19/13 Q1013 BLU
  • 201625Z AUTO 28013KT 240V320 9999 SCT038 BKN042 BKN052 19/13 Q1013 BLU
  • 201610Z AUTO 28011KT 240V320 9999 FEW023 SCT030 BKN041 19/14 Q1013 BLU
  • 201602Z AUTO 28009KT 9999 -RA SCT024 BKN031 OVC036 18/13 Q1013 WHT
  • 201555Z AUTO 27009KT 240V310 9999 FEW025 SCT029 BKN033 19/13 Q1013 REDZ BLU

TAF TAF EHGR
Valide du 20 à 09h jusqu'au 20 à 21h UTC


200823Z 2009/2021 23008KT 9999 FEW015 BKN022
BECMG 2009/2011 28010KT
PROB40
TEMPO 2010/2016 28012G25KT FEW020CB BKN025
BECMG 2018/2021 23005KT
Pas de NOTAMs connus pour ce terrain.



MET'MAP, la Météo Aéronautique d'un coup d'oeil ! - Copyright ORBIFLY Décembre 2007 - Disclaimer

ORBIFLY MET'MAP TEAM :

Programmation & Développement : Alexandra Zaïnal
Conception & Développement : Baudouin d'Aumeries
Co-Programmation & Développement : Marc-Olivier Méhu
Soutien technique & logistique : Manuel Goepfert

Contact : metmap@orbifly.com




SOURCES & CREDITS :

   NOAA